This is the latest recevied weather packets stored in our database for station/object BMCB-1. If no packets are shown the sender has not sent any weather packets the latest 10 day(s).
| Time | Temp. | Humidity | Pressure | Rain* | Wind** | Luminosity | Snow |
|---|---|---|---|---|---|---|---|
| 1777725013 | 20.56° C | 65% | 1021.7 hPa | 0 mm | - | 570 W/m² | - |
| 1777716613 | 20° C | 64% | 1023.1 hPa | 0 mm | - | 270 W/m² | - |
| 1777705214 | 15° C | 79% | 1024.3 hPa | 0 mm | - | 292 W/m² | - |
| 1777700414 | 10° C | 93% | 1025 hPa | 0 mm | - | 74 W/m² | - |
| 1777699813 | 10° C | 93% | 1025.1 hPa | 0 mm | - | 44 W/m² | - |
| 1777696814 | 8.89° C | 90% | 1025 hPa | 0 mm | - | 14 W/m² | - |
| 1777695614 | 9.44° C | 88% | 1024.8 hPa | 0 mm | - | 2 W/m² | - |
| 1777694414 | 10° C | 86% | 1024.9 hPa | 0 mm | - | 0 W/m² | - |
| 1777692014 | 12.78° C | 73% | 1024.9 hPa | 0 mm | - | 0 W/m² | - |
| 1777687814 | 8.89° C | 80% | 1025.7 hPa | 0 mm | - | 0 W/m² | - |
| 1777678214 | 6.67° C | 84% | 1026.5 hPa | 0 mm | - | 0 W/m² | - |
| 1777674616 | 7.78° C | 83% | 1026.9 hPa | 0 mm | - | 0 W/m² | - |
| 1777674016 | 7.78° C | 82% | 1027.1 hPa | 0 mm | - | 0 W/m² | - |
| 1777672215 | 7.78° C | 81% | 1027.2 hPa | 0 mm | - | 0 W/m² | - |
| 1777666815 | 9.44° C | 73% | 1027.2 hPa | 0 mm | - | 0 W/m² | - |
| 1777662615 | 13.89° C | 55% | 1026.3 hPa | 0 mm | - | 2 W/m² | - |
| 1777659614 | 18.89° C | 35% | 1025.3 hPa | 0 mm | - | 24 W/m² | - |
| 1777657815 | 20° C | 35% | 1025.1 hPa | 0 mm | - | 104 W/m² | - |
| 1777643415 | 22.22° C | 28% | 1026 hPa | 0 mm | - | 688 W/m² | - |
| 1777642815 | 22.22° C | 29% | 1026 hPa | 0 mm | - | 704 W/m² | - |
| 1777641014 | 21.67° C | 29% | 1026.4 hPa | 0 mm | - | 746 W/m² | - |
| 1777636215 | 20.56° C | 27% | 1026.9 hPa | 0 mm | - | 798 W/m² | - |
| 1777632615 | 19.44° C | 28% | 1027.5 hPa | 0 mm | - | 780 W/m² | - |
| 1777626015 | 16.11° C | 32% | 1028.3 hPa | 0 mm | - | 628 W/m² | - |
| 1777623615 | 15° C | 34% | 1028.5 hPa | 0 mm | - | 538 W/m² | - |
* Rain latest hour (hover to see other rain measurements)
** Current wind speed in m/s (hover to see current wind gust speed)